createdAt,value
2018-12-03T00:06:10.764Z,49.40
2018-12-03T00:16:16.978Z,49.50
2018-12-03T00:26:22.630Z,49.30
2018-12-03T00:36:27.598Z,49.20
2018-12-03T00:46:32.251Z,49.30
2018-12-03T00:56:36.899Z,49.40
2018-12-03T01:06:41.694Z,49.30
2018-12-03T01:16:46.369Z,49.30
2018-12-03T01:26:51.001Z,49.40
2018-12-03T01:36:56.336Z,49.40
2018-12-03T01:47:01.007Z,49.40
2018-12-03T01:57:05.677Z,49.30
2018-12-03T02:07:10.365Z,49.30
2018-12-03T02:17:14.951Z,49.30
2018-12-03T02:27:20.165Z,49.40
2018-12-03T02:37:25.390Z,49.30
2018-12-03T02:47:29.954Z,49.30
2018-12-03T02:57:34.656Z,49.30
2018-12-03T03:07:39.220Z,49.40
2018-12-03T03:17:44.582Z,49.40
2018-12-03T03:27:49.266Z,49.40
2018-12-03T03:37:53.987Z,49.40
2018-12-03T03:47:58.701Z,49.30
2018-12-03T03:58:03.376Z,49.50
2018-12-03T04:08:08.003Z,49.70
2018-12-03T04:18:12.946Z,49.60
2018-12-03T04:28:17.656Z,49.70
2018-12-03T04:38:22.289Z,49.80
2018-12-03T04:48:27.185Z,49.80
2018-12-03T04:58:31.934Z,49.80
2018-12-03T05:08:36.725Z,49.90
2018-12-03T05:18:41.595Z,49.80
2018-12-03T05:28:46.447Z,49.80
2018-12-03T05:38:51.164Z,50.00
2018-12-03T05:48:55.894Z,50.00
2018-12-03T05:59:00.579Z,50.00
2018-12-03T06:09:08.268Z,50.10
2018-12-03T06:19:12.990Z,50.00
2018-12-03T06:29:17.694Z,50.10
2018-12-03T06:39:22.333Z,50.10
2018-12-03T06:49:27.048Z,50.10
2018-12-03T06:59:32.518Z,50.10
2018-12-03T07:09:37.280Z,50.10
2018-12-03T07:19:41.951Z,50.20
2018-12-03T07:29:46.665Z,50.20
2018-12-03T07:39:51.359Z,50.20
2018-12-03T07:49:56.420Z,51.60
2018-12-03T08:00:01.058Z,51.00
2018-12-03T08:10:09.741Z,49.60
2018-12-03T08:20:27.068Z,49.60
2018-12-03T08:30:31.767Z,49.60
2018-12-03T08:40:37.086Z,49.80
2018-12-03T08:50:45.805Z,49.80
2018-12-03T09:00:51.257Z,51.30
2018-12-03T09:10:56.235Z,51.00
2018-12-03T09:21:01.688Z,51.30
2018-12-03T09:31:06.820Z,51.90
2018-12-03T09:41:11.787Z,51.60
2018-12-03T09:51:16.803Z,51.80
2018-12-03T10:01:21.436Z,51.90
2018-12-03T10:11:25.994Z,53.00
2018-12-03T10:21:30.572Z,53.20
2018-12-03T10:31:35.170Z,53.70
2018-12-03T10:41:40.918Z,54.10
2018-12-03T10:51:45.522Z,53.40
2018-12-03T11:03:36.987Z,53.10
2018-12-03T11:13:41.716Z,53.70
2018-12-03T11:23:46.517Z,54.40
2018-12-03T11:33:51.389Z,54.30
2018-12-03T11:43:56.016Z,53.90
2018-12-03T11:54:00.718Z,53.70
2018-12-03T12:04:05.951Z,53.20
2018-12-03T12:14:31.398Z,52.70
2018-12-03T12:24:36.465Z,54.80
2018-12-03T12:34:41.314Z,54.40
2018-12-03T12:44:46.713Z,53.50
2018-12-03T12:54:51.436Z,54.30
2018-12-03T13:04:56.347Z,54.70
2018-12-03T13:15:01.049Z,54.80
2018-12-03T13:25:09.838Z,54.50
2018-12-03T13:35:15.066Z,53.50
2018-12-03T13:45:24.470Z,52.10
2018-12-03T13:55:29.135Z,51.90
2018-12-03T14:05:38.619Z,52.60
2018-12-03T14:17:08.112Z,52.30
2018-12-03T14:27:12.956Z,52.20
2018-12-03T14:37:17.651Z,52.30
2018-12-03T14:47:23.369Z,52.30
2018-12-03T14:57:28.049Z,52.40
2018-12-03T15:07:32.678Z,52.30
2018-12-03T15:17:38.489Z,53.10
2018-12-03T15:27:43.140Z,52.90
2018-12-03T15:37:47.757Z,53.90
2018-12-03T15:47:52.747Z,53.70
2018-12-03T15:57:58.670Z,53.70
2018-12-03T16:08:03.506Z,55.00
2018-12-03T16:18:08.963Z,55.50
2018-12-03T16:28:13.610Z,54.40
2018-12-03T16:38:18.432Z,54.60
2018-12-03T16:48:24.722Z,54.40
2018-12-03T16:58:29.843Z,54.20
2018-12-03T17:08:34.876Z,54.10
2018-12-03T17:18:39.987Z,53.70
2018-12-03T17:28:44.798Z,53.80
2018-12-03T17:38:50.046Z,53.30
2018-12-03T17:48:54.912Z,53.20
2018-12-03T17:58:59.548Z,53.10
2018-12-03T18:09:05.331Z,53.20
2018-12-03T18:19:10.131Z,53.60
2018-12-03T18:29:15.472Z,53.30
2018-12-03T18:39:20.329Z,53.20
2018-12-03T18:49:34.219Z,53.30
2018-12-03T18:59:40.579Z,54.10
2018-12-03T19:09:46.263Z,54.40
2018-12-03T19:19:51.050Z,54.80
2018-12-03T19:29:56.650Z,55.30
2018-12-03T19:40:02.023Z,54.90
2018-12-03T19:50:08.920Z,55.20
2018-12-03T20:00:15.511Z,55.50
2018-12-03T20:10:20.805Z,55.60
2018-12-03T20:20:41.374Z,53.80
2018-12-03T20:31:15.515Z,50.80
2018-12-03T20:41:29.776Z,50.80
2018-12-03T20:51:40.486Z,51.60
2018-12-03T21:01:47.608Z,51.80
2018-12-03T21:11:52.219Z,52.30
2018-12-03T21:21:58.643Z,52.40
2018-12-03T21:32:03.434Z,52.60
2018-12-03T21:42:08.710Z,52.70
2018-12-03T21:52:13.725Z,52.90
2018-12-03T22:02:23.958Z,53.10
2018-12-03T22:12:25.087Z,53.30
2018-12-03T22:22:31.209Z,53.20
2018-12-03T22:32:37.878Z,54.00
2018-12-03T22:42:43.455Z,53.70
2018-12-03T22:52:48.495Z,53.70
2018-12-03T23:02:54.572Z,53.70
2018-12-03T23:12:59.638Z,53.90
2018-12-03T23:23:05.179Z,54.30
2018-12-03T23:33:10.122Z,54.00
2018-12-03T23:43:14.883Z,54.00
2018-12-03T23:53:19.887Z,53.10
